Time;durP1;ratioP1;P1;durP2;ratioP2;P2;SDS_P1;SDS_P2;PMS_P1;PMS_P2;Temp;Humidity;BMP_temperature;BMP_pressure;BME280_temperature;BME280_humidity;BME280_pressure;Samples;Min_cycle;Max_cycle;Signal;HPM_P1;HPM_P2
2021/01/21 00:01:51;;;;;;;0.70;0.63;;;11.70;99.90;;;12.55;100.00;147807.16;5017000;28;20443;-65
2021/01/21 00:04:18;;;;;;;0.70;0.67;;;11.70;99.90;;;12.39;100.00;147766.50;5016134;28;21043;-65
2021/01/21 00:06:45;;;;;;;0.70;0.60;;;11.60;99.90;;;12.33;100.00;147751.22;5016583;28;20953;-64
2021/01/21 00:09:12;;;;;;;0.70;0.60;;;11.50;99.90;;;12.45;100.00;147781.78;5016774;28;20448;-64
2021/01/21 00:11:40;;;;;;;0.70;0.70;;;11.60;99.90;;;12.42;100.00;147772.88;5017222;28;20437;-66
2021/01/21 00:14:07;;;;;;;0.70;0.67;;;11.50;99.90;;;12.38;100.00;147763.97;5000187;28;21015;-64
2021/01/21 00:16:34;;;;;;;0.70;0.60;;;11.60;99.90;;;12.35;100.00;147756.31;5003591;28;20442;-65
2021/01/21 00:19:01;;;;;;;0.70;0.60;;;11.60;99.90;;;12.29;100.00;147741.06;5010465;28;20445;-65
2021/01/21 00:21:28;;;;;;;0.70;0.60;;;11.70;99.90;;;12.31;100.00;147747.41;5008086;28;20956;-64
2021/01/21 00:23:58;;;;;;;0.70;0.60;;;11.50;99.90;;;12.32;100.00;147748.69;5015579;28;20453;-65
2021/01/21 00:26:26;;;;;;;0.70;0.53;;;11.40;99.90;;;12.26;100.00;147734.72;5014950;28;20488;-65
2021/01/21 00:28:54;;;;;;;0.70;0.60;;;11.40;99.90;;;12.17;100.00;147710.56;5013254;28;20466;-64
2021/01/21 00:31:21;;;;;;;0.70;0.60;;;11.50;99.90;;;12.30;100.00;147744.88;4997431;28;20507;-65
2021/01/21 00:33:48;;;;;;;0.70;0.60;;;11.40;99.90;;;12.18;100.00;147714.34;5009183;28;20511;-64
2021/01/21 00:36:16;;;;;;;0.70;0.60;;;11.40;99.90;;;12.20;100.00;147718.19;5016931;28;20423;-65
2021/01/21 00:38:42;;;;;;;0.70;0.60;;;11.30;99.90;;;12.18;100.00;147713.09;5016162;28;20853;-64
2021/01/21 00:41:09;;;;;;;0.70;0.60;;;11.40;99.90;;;12.28;100.00;147738.53;5015708;28;20934;-64
2021/01/21 00:43:39;;;;;;;0.70;0.70;;;11.40;99.90;;;12.28;100.00;147738.53;5025189;28;20519;-65
2021/01/21 00:46:07;;;;;;;0.70;0.67;;;11.50;99.90;;;12.36;100.00;147758.84;5007173;28;21011;-65
2021/01/21 00:48:34;;;;;;;0.70;0.70;;;11.50;99.90;;;12.33;100.00;147751.22;5009746;28;20450;-65
2021/01/21 00:51:01;;;;;;;0.70;0.70;;;11.50;99.90;;;12.27;100.00;147736.00;5014420;28;20438;-65
2021/01/21 00:53:27;;;;;;;0.70;0.60;;;11.50;99.90;;;12.36;100.00;147757.59;5010713;28;20492;-64
2021/01/21 00:55:54;;;;;;;0.70;0.70;;;11.50;99.90;;;12.26;100.00;147733.41;5015768;28;20441;-64
2021/01/21 00:58:22;;;;;;;0.70;0.70;;;11.60;99.90;;;12.25;100.00;147730.88;4996909;28;20438;-64
2021/01/21 01:00:49;;;;;;;0.70;0.60;;;11.50;99.90;;;12.25;100.00;147730.88;4999870;28;20474;-65
2021/01/21 01:03:19;;;;;;;0.70;0.70;;;11.50;99.90;;;12.32;100.00;147748.69;5016836;28;20427;-65
2021/01/21 01:05:47;;;;;;;0.70;0.60;;;11.50;99.90;;;12.39;100.00;147765.22;5015718;28;20538;-65
2021/01/21 01:08:15;;;;;;;1.47;1.37;;;11.50;99.90;;;12.37;100.00;147761.44;5001617;28;20927;-65
2021/01/21 01:10:43;;;;;;;0.70;0.60;;;11.60;99.90;;;12.31;100.00;147747.41;4995416;28;20434;-65
2021/01/21 01:13:23;;;;;;;0.70;0.70;;;11.50;99.90;;;12.41;100.00;147771.59;5026048;28;20483;-66
2021/01/21 01:15:52;;;;;;;1.33;1.23;;;11.50;99.90;;;12.50;100.00;147794.47;5021666;28;20482;-65
2021/01/21 01:18:25;;;;;;;1.27;1.17;;;11.50;99.90;;;12.35;100.00;147756.31;5031439;28;20441;-66
2021/01/21 01:20:53;;;;;;;0.80;0.80;;;11.50;99.90;;;12.34;100.00;147753.78;5029719;28;21014;-65
2021/01/21 01:23:20;;;;;;;1.13;1.03;;;11.50;99.90;;;12.40;100.00;147769.03;5014418;28;20450;-65
2021/01/21 01:25:47;;;;;;;0.80;0.80;;;11.40;99.90;;;12.39;100.00;147766.50;5030707;28;20539;-65
2021/01/21 01:28:14;;;;;;;0.70;0.70;;;11.40;99.90;;;12.37;100.00;147761.44;5015654;28;20521;-65
2021/01/21 01:30:41;;;;;;;0.70;0.60;;;11.60;99.90;;;12.19;100.00;147715.66;5003956;28;20515;-66
2021/01/21 01:33:08;;;;;;;0.70;0.70;;;11.40;99.90;;;12.27;100.00;147736.00;4996275;28;20467;-65
2021/01/21 01:35:39;;;;;;;0.70;0.63;;;11.40;99.90;;;12.31;100.00;147746.16;5014505;28;20537;-66
2021/01/21 01:38:05;;;;;;;0.70;0.60;;;11.50;99.90;;;12.32;100.00;147748.69;5016192;28;20445;-66
2021/01/21 01:40:33;;;;;;;0.70;0.70;;;11.50;99.80;;;12.28;100.00;147738.53;5025630;28;20449;-65
2021/01/21 01:43:01;;;;;;;0.70;0.60;;;11.60;99.60;;;12.33;100.00;147751.22;5014422;28;20450;-65
2021/01/21 01:45:29;;;;;;;0.70;0.70;;;11.60;99.20;;;12.40;100.00;147769.03;5005116;28;20484;-65
2021/01/21 01:47:57;;;;;;;0.70;0.60;;;11.60;99.00;;;12.52;100.00;147798.31;5029294;28;20457;-64
2021/01/21 01:50:32;;;;;;;0.70;0.60;;;11.80;98.90;;;12.60;100.00;147817.38;5013788;28;20917;-65
2021/01/21 01:53:01;;;;;;;0.70;0.60;;;11.80;98.40;;;12.60;100.00;147818.66;5030487;28;20469;-65
2021/01/21 01:55:30;;;;;;;0.70;0.70;;;11.90;98.00;;;12.76;100.00;147858.06;4995961;28;20522;-66
2021/01/21 01:58:15;;;;;;;0.70;0.70;;;12.00;97.60;;;12.73;100.00;147850.44;5030492;28;20485;-65
2021/01/21 02:00:50;;;;;;;0.70;0.70;;;12.00;97.40;;;12.85;100.00;147879.69;5027841;28;20435;-65
2021/01/21 02:03:19;;;;;;;0.70;0.60;;;11.90;97.40;;;12.82;100.00;147873.34;5029686;28;20434;-65
2021/01/21 02:06:04;;;;;;;0.70;0.60;;;12.00;97.20;;;12.84;100.00;147875.78;5028650;28;20540;-64
2021/01/21 02:08:33;;;;;;;0.70;0.70;;;12.20;96.50;;;12.92;100.00;147558.00;5013741;28;20473;-66
2021/01/21 02:11:08;;;;;;;0.80;0.73;;;12.20;96.20;;;12.92;100.00;147219.91;5012909;28;20428;-64
2021/01/21 02:13:51;;;;;;;0.70;0.70;;;12.00;96.70;;;12.98;100.00;147910.13;5011423;28;20569;-65
2021/01/21 02:16:41;;;;;;;0.80;0.70;;;12.10;96.30;;;13.03;100.00;146571.63;5029506;28;20564;-65
2021/01/21 02:20:16;;;;;;;0.70;0.70;;;12.20;96.00;;;13.09;100.00;145570.06;5011252;28;20943;-64
2021/01/21 02:23:41;;;;;;;0.70;0.60;;;12.20;95.80;;;13.11;100.00;144223.25;5004139;28;20450;-65
2021/01/21 02:26:18;;;;;;;0.80;0.70;;;12.40;95.40;;;13.17;100.00;143562.38;5012742;28;20442;-66
2021/01/21 02:29:12;;;;;;;0.90;0.80;;;12.30;95.40;;;13.17;100.00;143900.25;5012217;28;20470;-66
2021/01/21 02:32:16;;;;;;;0.70;0.70;;;12.30;95.70;;;13.16;100.00;142546.50;5029349;28;20435;-66
2021/01/21 02:35:05;;;;;;;0.80;0.70;;;12.40;95.20;;;13.24;100.00;141215.22;5014732;28;20484;-65
2021/01/21 02:37:34;;;;;;;0.70;0.70;;;12.40;94.90;;;13.33;100.00;140560.47;5013349;28;20441;-65
2021/01/21 02:40:06;;;;;;;0.80;0.80;;;12.40;94.80;;;13.13;100.00;141188.44;5002107;28;20465;-65
2021/01/21 02:42:49;;;;;;;0.70;0.60;;;12.40;94.50;;;13.22;100.00;140872.69;5009751;28;20496;-68
2021/01/21 02:45:20;;;;;;;0.70;0.60;;;12.50;94.70;;;13.10;100.00;142194.06;5013673;28;20848;-66
2021/01/21 02:47:53;;;;;;;0.70;0.60;;;12.40;94.70;;;13.17;100.00;143225.75;5025625;28;20465;-65
2021/01/21 02:50:25;;;;;;;0.70;0.63;;;12.40;94.80;;;13.24;100.00;142228.38;5013445;28;20514;-66
2021/01/21 02:52:59;;;;;;;0.70;0.70;;;12.40;94.70;;;13.14;100.00;143217.13;5011994;28;20465;-65
2021/01/21 02:55:39;;;;;;;0.70;0.70;;;12.40;94.50;;;13.16;100.00;142884.28;5014546;28;20450;-65
2021/01/21 02:58:12;;;;;;;0.70;0.70;;;12.40;94.50;;;13.19;100.00;143229.47;5024739;28;20537;-65
2021/01/21 03:00:40;;;;;;;0.80;0.70;;;12.50;94.40;;;13.04;100.00;145222.09;5016550;28;20475;-65
2021/01/21 03:03:13;;;;;;;0.70;0.60;;;12.30;95.00;;;12.91;100.00;147893.59;5015635;28;20443;-65
2021/01/21 03:05:51;;;;;;;0.70;0.60;;;12.30;95.00;;;13.08;100.00;147936.97;5027465;28;20465;-65
2021/01/21 03:08:19;;;;;;;0.70;0.70;;;12.30;95.10;;;12.99;100.00;147916.56;5010844;28;20459;-65
2021/01/21 03:10:48;;;;;;;0.70;0.70;;;12.30;95.20;;;12.98;100.00;147912.78;5011458;28;20479;-65
2021/01/21 03:13:17;;;;;;;0.70;0.60;;;12.30;95.20;;;12.98;100.00;147914.03;5013517;28;20461;-65
2021/01/21 03:15:49;;;;;;;0.70;0.70;;;12.20;95.60;;;13.01;100.00;147921.69;5029248;28;20482;-66
2021/01/21 03:18:19;;;;;;;0.70;0.60;;;12.30;95.80;;;13.09;100.00;147940.78;5027633;28;20900;-65
2021/01/21 03:20:47;;;;;;;0.73;0.70;;;12.20;95.80;;;13.03;100.00;147926.81;5028652;28;20446;-65
2021/01/21 03:23:24;;;;;;;0.70;0.70;;;12.20;95.80;;;13.06;100.00;147934.41;5005153;28;20444;-65
2021/01/21 03:25:59;;;;;;;0.70;0.67;;;12.30;95.60;;;13.12;100.00;147947.16;5027359;28;21015;-66
2021/01/21 03:28:26;;;;;;;0.80;0.73;;;12.40;95.80;;;13.14;100.00;147953.47;5012434;28;20440;-65
2021/01/21 03:30:53;;;;;;;0.80;0.70;;;12.40;95.60;;;13.10;100.00;147942.03;5011740;28;20946;-66
2021/01/21 03:33:22;;;;;;;0.80;0.77;;;12.30;95.80;;;13.22;100.00;147973.88;5027703;28;20466;-69
2021/01/21 03:35:54;;;;;;;0.80;0.70;;;12.30;95.70;;;13.14;100.00;147952.22;5026348;28;20862;-65
2021/01/21 03:38:21;;;;;;;0.70;0.63;;;12.30;96.20;;;13.07;100.00;147935.72;4995761;28;20452;-67
2021/01/21 03:41:08;;;;;;;0.70;0.70;;;12.30;96.00;;;13.13;100.00;147949.69;4982305;28;20438;-65
2021/01/21 03:43:38;;;;;;;0.70;0.60;;;12.40;96.10;;;13.13;100.00;147950.94;5005353;28;20548;-65
2021/01/21 03:46:19;;;;;;;0.80;0.70;;;12.40;96.00;;;13.15;100.00;147954.78;5025826;28;20458;-66
2021/01/21 03:48:46;;;;;;;0.70;0.60;;;12.50;95.40;;;13.29;100.00;147990.44;5027712;28;20438;-66
2021/01/21 03:51:39;;;;;;;0.70;0.70;;;12.50;95.50;;;13.25;100.00;147980.25;5028533;28;20922;-66
2021/01/21 03:54:21;;;;;;;0.70;0.60;;;12.50;95.50;;;13.24;100.00;147977.72;5014670;28;20498;-65
2021/01/21 03:56:49;;;;;;;0.70;0.60;;;12.40;95.70;;;13.20;100.00;147968.75;4992525;28;20508;-66
2021/01/21 03:59:19;;;;;;;0.70;0.70;;;12.50;95.50;;;13.23;100.00;147975.13;5001375;28;20993;-65
2021/01/21 04:01:53;;;;;;;0.80;0.70;;;12.60;95.30;;;13.27;100.00;147985.38;5027273;28;20527;-66
2021/01/21 04:04:21;;;;;;;0.70;0.70;;;12.50;95.40;;;13.22;100.00;147972.59;5019295;28;20489;-65
2021/01/21 04:06:49;;;;;;;0.70;0.60;;;12.50;95.80;;;13.26;100.00;147982.84;5008993;28;20435;-66
2021/01/21 04:09:23;;;;;;;0.70;0.60;;;12.60;95.40;;;13.17;100.00;147961.13;5016376;28;20458;-68
2021/01/21 04:12:06;;;;;;;0.80;0.80;;;12.50;95.50;;;13.13;100.00;147949.69;5027954;28;20453;-67
2021/01/21 04:14:34;;;;;;;0.80;0.70;;;12.50;95.80;;;13.18;100.00;147963.69;5021687;28;20475;-66
2021/01/21 04:17:01;;;;;;;0.70;0.60;;;12.50;96.20;;;13.17;100.00;147959.84;5022597;28;20490;-65
2021/01/21 04:19:31;;;;;;;0.70;0.60;;;12.40;96.20;;;13.21;100.00;147970.03;5018978;28;20459;-66
2021/01/21 04:21:59;;;;;;;0.70;0.70;;;12.50;96.20;;;13.20;100.00;147967.50;5011599;28;20464;-66
2021/01/21 04:24:30;;;;;;;0.80;0.77;;;12.50;96.60;;;13.14;100.00;147952.22;5009378;28;20482;-65
2021/01/21 04:27:05;;;;;;;0.70;0.70;;;12.40;96.90;;;13.17;100.00;147959.84;5010788;28;20929;-65
2021/01/21 04:29:42;;;;;;;0.70;0.60;;;12.50;97.00;;;13.21;100.00;147970.03;5023951;28;20472;-66
2021/01/21 04:32:10;;;;;;;0.70;0.63;;;12.50;97.00;;;13.17;100.00;147961.13;5027453;28;20519;-66
2021/01/21 04:34:37;;;;;;;0.80;0.70;;;12.40;97.50;;;13.07;100.00;147935.72;5026381;28;20445;-66
2021/01/21 04:37:05;;;;;;;0.80;0.80;;;12.30;97.90;;;13.06;100.00;147933.13;5028063;28;20540;-66
2021/01/21 04:40:06;;;;;;;0.70;0.67;;;12.40;97.80;;;13.08;100.00;147936.97;4998245;28;20455;-67
2021/01/21 04:42:35;;;;;;;0.70;0.67;;;12.40;98.20;;;13.15;100.00;147954.78;5008943;28;20462;-65
2021/01/21 04:45:08;;;;;;;0.70;0.70;;;12.50;98.10;;;13.09;100.00;147939.50;5012091;28;21000;-66
2021/01/21 04:47:44;;;;;;;0.80;0.70;;;12.40;98.30;;;13.06;100.00;147933.13;5016107;28;20446;-64
2021/01/21 04:50:33;;;;;;;0.70;0.60;;;12.40;98.60;;;13.03;100.00;147926.81;5017934;28;20464;-64
2021/01/21 04:53:13;;;;;;;0.70;0.70;;;12.40;99.20;;;13.04;100.00;147929.34;5008003;28;20472;-66
2021/01/21 04:56:37;;;;;;;0.70;0.60;;;12.30;99.20;;;13.01;100.00;147921.69;5015432;28;20450;-64
2021/01/21 04:59:36;;;;;;;0.70;0.70;;;12.30;99.70;;;13.03;100.00;147926.81;5015079;28;20470;-66
2021/01/21 05:02:06;;;;;;;0.70;0.67;;;12.20;99.90;;;12.87;100.00;147886.06;5030897;28;20445;-65
2021/01/21 05:04:36;;;;;;;0.70;0.60;;;12.20;99.90;;;12.92;100.00;147898.75;5027422;28;20529;-64
2021/01/21 05:07:29;;;;;;;0.70;0.60;;;12.20;99.90;;;12.88;100.00;147888.59;4995098;28;20493;-67
2021/01/21 05:09:58;;;;;;;0.70;0.60;;;12.10;99.90;;;12.77;100.00;147860.59;5022579;28;20537;-67
2021/01/21 05:12:26;;;;;;;1.63;1.53;;;12.00;99.90;;;12.86;100.00;147882.25;5000713;28;20442;-66
2021/01/21 05:15:11;;;;;;;0.80;0.70;;;12.10;99.90;;;12.88;100.00;147887.31;5001792;28;20452;-67
2021/01/21 05:17:59;;;;;;;0.70;0.70;;;12.10;99.90;;;12.87;100.00;147886.06;5014877;28;20800;-67
2021/01/21 05:20:49;;;;;;;0.70;0.60;;;12.10;99.90;;;12.88;100.00;147888.59;5029725;28;20449;-67
2021/01/21 05:23:34;;;;;;;0.70;0.70;;;12.00;99.90;;;12.92;100.00;147898.75;5014458;28;20951;-66
2021/01/21 05:26:30;;;;;;;2.10;2.00;;;12.10;99.90;;;12.92;100.00;147897.50;4994835;28;20454;-66
2021/01/21 05:29:11;;;;;;;0.80;0.70;;;12.10;99.90;;;12.91;100.00;147896.22;5011075;28;20473;-64
2021/01/21 05:31:54;;;;;;;0.70;0.60;;;12.10;99.90;;;12.83;100.00;147875.88;5025423;28;20450;-64
2021/01/21 05:34:26;;;;;;;0.70;0.60;;;12.00;99.90;;;12.83;100.00;147875.88;5029378;28;20458;-65
2021/01/21 05:37:17;;;;;;;0.70;0.70;;;12.10;99.90;;;12.84;100.00;147878.41;5013738;28;20483;-63
2021/01/21 05:40:11;;;;;;;0.90;0.80;;;12.10;99.90;;;12.78;100.00;147864.44;5026545;28;20432;-65
2021/01/21 05:43:02;;;;;;;0.70;0.70;;;12.00;99.90;;;9.89;100.00;147143.88;5030839;28;20438;-64
2021/01/21 05:45:43;;;;;;;0.73;0.70;;;7.80;99.90;;;7.73;100.00;146608.75;5026722;28;20458;-64
2021/01/21 05:48:13;;;;;;;0.70;0.60;;;6.20;99.90;;;7.39;100.00;146522.56;4996168;28;20535;-64
2021/01/21 05:50:42;;;;;;;0.70;0.60;;;5.80;99.90;;;7.20;100.00;146475.72;5006742;28;20438;-63
2021/01/21 05:53:10;;;;;;;0.70;0.60;;;5.70;99.90;;;6.80;100.00;146375.69;5008574;28;20804;-62
2021/01/21 05:55:45;;;;;;;0.70;0.60;;;5.70;99.90;;;6.95;100.00;146413.66;5012751;28;20452;-63
2021/01/21 05:58:15;;;;;;;0.70;0.60;;;5.60;99.90;;;6.83;100.00;146384.56;5011098;28;20434;-63
2021/01/21 06:00:44;;;;;;;0.70;0.60;;;5.60;99.90;;;6.80;100.00;146375.69;5001785;28;20791;-64
2021/01/21 06:03:47;;;;;;;0.70;0.60;;;5.50;99.90;;;6.73;100.00;146359.22;5024116;28;20449;-65
2021/01/21 06:06:26;;;;;;;0.70;0.60;;;5.50;99.90;;;6.77;100.00;146370.66;5014405;28;20483;-65
2021/01/21 06:08:54;;;;;;;0.70;0.60;;;5.40;99.90;;;6.64;100.00;146336.47;5012685;28;20934;-63
2021/01/21 06:11:21;;;;;;;0.70;0.53;;;5.40;99.90;;;6.73;100.00;146360.50;5012737;28;20445;-64
2021/01/21 06:13:49;;;;;;;0.70;0.50;;;5.40;99.90;;;6.63;100.00;146335.22;5012185;28;20486;-63
2021/01/21 06:16:16;;;;;;;0.60;0.50;;;5.30;99.90;;;6.67;100.00;146345.34;5013538;28;20473;-63
2021/01/21 06:18:44;;;;;;;0.70;0.60;;;5.40;99.90;;;6.72;100.00;146356.72;5013862;28;20910;-64
2021/01/21 06:21:36;;;;;;;0.60;0.50;;;5.30;99.90;;;6.60;100.00;146326.34;5011825;28;20453;-63
2021/01/21 06:24:19;;;;;;;0.70;0.60;;;5.40;99.90;;;6.52;100.00;146308.63;5024541;28;20466;-64
2021/01/21 06:27:00;;;;;;;0.70;0.60;;;5.40;99.90;;;6.53;100.00;146307.28;5013465;28;20421;-64
2021/01/21 06:29:30;;;;;;;0.70;0.60;;;5.40;99.90;;;6.47;100.00;144621.25;5008409;28;20808;-65
2021/01/21 06:32:03;;;;;;;0.60;0.50;;;5.50;99.90;;;6.43;100.00;142271.81;5011278;28;20426;-64
2021/01/21 06:34:35;;;;;;;0.67;0.60;;;5.50;99.90;;;6.57;100.00;139632.69;5014675;28;20549;-65
2021/01/21 06:37:13;;;;;;;0.60;0.50;;;5.50;99.90;;;6.56;100.00;136292.69;5010270;28;20455;-63
2021/01/21 06:39:52;;;;;;;0.70;0.60;;;5.60;99.90;;;6.60;100.00;132634.13;5013817;28;20476;-64
2021/01/21 06:42:35;;;;;;;0.70;0.60;;;5.60;99.90;;;6.56;100.00;128294.13;5027558;28;20488;-66
2021/01/21 06:45:05;;;;;;;0.70;0.60;;;5.70;99.90;;;6.76;100.00;125011.59;5024643;28;20532;-65
2021/01/21 06:47:34;;;;;;;0.63;0.60;;;5.70;99.90;;;6.78;100.00;121358.53;5013443;28;20442;-64
2021/01/21 06:50:04;;;;;;;0.70;0.50;;;5.80;99.90;;;6.77;100.00;118365.84;5014387;28;20916;-64
2021/01/21 06:52:35;;;;;;;0.70;0.50;;;5.90;99.90;;;6.77;100.00;116042.44;5007860;28;20445;-64
2021/01/21 06:55:07;;;;;;;0.60;0.60;;;5.90;99.90;;;6.83;100.00;113400.78;5013189;28;20430;-64
2021/01/21 06:57:45;;;;;;;0.60;0.50;;;6.00;99.90;;;6.81;100.00;111407.94;5013443;28;20442;-63
2021/01/21 07:00:16;;;;;;;0.60;0.50;;;6.00;99.90;;;6.71;100.00;109733.28;5011190;28;20461;-63
2021/01/21 07:02:46;;;;;;;0.70;0.60;;;5.90;99.90;;;6.77;100.00;108088.09;5004754;28;20430;-66
2021/01/21 07:05:17;;;;;;;0.60;0.50;;;5.90;99.90;;;6.80;100.00;106438.75;5013089;28;20424;-64
2021/01/21 07:08:05;;;;;;;0.60;0.50;;;5.90;99.90;;;6.66;100.00;103767.19;5012512;28;20438;-64
2021/01/21 07:10:40;;;;;;;0.60;0.50;;;5.90;99.90;;;6.59;100.00;102103.13;5010389;28;20444;-64
2021/01/21 07:13:11;;;;;;;0.70;0.60;;;5.90;99.90;;;6.76;100.00;101471.50;5009005;28;20460;-65
2021/01/21 07:15:44;;;;;;;0.60;0.50;;;5.90;99.90;;;6.73;100.00;99815.44;5009215;28;20918;-64
2021/01/21 07:18:16;;;;;;;0.67;0.57;;;5.90;99.90;;;6.69;100.00;98157.75;5002130;28;20644;-64
2021/01/21 07:21:09;;;;;;;0.60;0.60;;;5.90;99.90;;;6.72;100.00;96182.06;5004887;28;20766;-64
2021/01/21 07:23:46;;;;;;;0.60;0.50;;;5.90;99.90;;;6.75;100.00;95528.16;5010705;28;20799;-66
2021/01/21 07:26:34;;;;;;;0.60;0.60;;;5.90;99.90;;;6.62;100.00;92538.94;5012844;28;20833;-64
2021/01/21 07:29:09;;;;;;;0.67;0.53;;;6.00;99.90;;;6.72;100.00;91896.03;5012709;28;20458;-64
2021/01/21 07:32:07;;;;;;;0.70;0.60;;;5.90;99.90;;;6.68;100.00;89914.19;5009603;28;20491;-64
2021/01/21 07:34:48;;;;;;;0.70;0.60;;;5.90;99.90;;;6.72;100.00;88274.31;5009317;28;20550;-64
2021/01/21 07:37:24;;;;;;;0.60;0.50;;;6.00;99.90;;;6.78;100.00;87625.28;5012078;28;20914;-64
2021/01/21 07:40:04;;;;;;;0.60;0.50;;;6.00;99.90;;;6.78;100.00;87295.41;5011260;28;20433;-64
2021/01/21 07:42:52;;;;;;;0.60;0.50;;;6.00;99.90;;;6.78;100.00;84993.31;5008521;28;20450;-65
2021/01/21 07:45:27;;;;;;;0.60;0.50;;;6.00;99.90;;;6.86;100.00;84017.16;5009344;28;21043;-65
2021/01/21 07:47:58;;;;;;;0.60;0.57;;;6.10;99.90;;;6.89;100.00;83035.94;5009973;28;20424;-64
2021/01/21 07:50:36;;;;;;;0.60;0.50;;;6.10;99.90;;;6.84;100.00;82699.97;5005309;28;20898;-64
2021/01/21 07:53:15;;;;;;;0.70;0.60;;;6.10;99.90;;;6.88;100.00;82705.00;5025908;28;20468;-64
2021/01/21 07:55:43;;;;;;;0.60;0.57;;;6.10;99.90;;;6.92;100.00;82382.84;5005137;28;20922;-64
2021/01/21 07:58:27;;;;;;;0.70;0.70;;;6.10;99.90;;;6.98;100.00;83048.25;5013210;28;20972;-64
2021/01/21 08:00:56;;;;;;;0.70;0.60;;;6.10;99.90;;;7.02;100.00;82726.00;5003094;28;20470;-64
2021/01/21 08:03:30;;;;;;;0.60;0.50;;;6.30;99.90;;;7.09;100.00;83722.00;4994783;28;20958;-65
2021/01/21 08:06:13;;;;;;;0.70;0.60;;;6.30;99.90;;;7.18;100.00;84393.16;4997741;28;20443;-65
2021/01/21 08:08:42;;;;;;;0.60;0.50;;;6.30;99.90;;;7.08;100.00;85693.78;5011020;28;20926;-65
2021/01/21 08:11:12;;;;;;;0.70;0.60;;;6.30;99.90;;;7.17;100.00;88011.97;5013131;28;20445;-64
2021/01/21 08:13:40;;;;;;;0.70;0.60;;;6.30;99.90;;;7.19;100.00;88673.88;5000498;28;20513;-65
2021/01/21 08:16:11;;;;;;;0.70;0.63;;;6.30;99.90;;;7.18;100.00;89002.53;5006911;28;20442;-66
2021/01/21 08:18:40;;;;;;;0.60;0.50;;;6.30;99.90;;;7.14;100.00;90973.53;5012406;28;20457;-65
2021/01/21 08:21:23;;;;;;;0.63;0.60;;;6.30;99.90;;;7.14;100.00;92951.88;5012736;28;20442;-66
2021/01/21 08:23:52;;;;;;;0.70;0.60;;;6.30;99.90;;;7.14;100.00;93941.47;5010860;28;20450;-65
2021/01/21 08:26:20;;;;;;;0.70;0.60;;;6.30;99.90;;;7.19;100.00;95269.63;5005409;28;20438;-65
2021/01/21 08:28:47;;;;;;;0.63;0.60;;;6.30;99.90;;;7.05;100.00;96566.59;5015842;28;20492;-67
2021/01/21 08:31:15;;;;;;;0.70;0.57;;;6.20;99.90;;;7.08;100.00;98222.69;5013624;28;20480;-65
2021/01/21 08:33:51;;;;;;;0.70;0.60;;;6.20;99.90;;;7.03;100.00;99205.03;5013769;28;20852;-65
2021/01/21 08:36:25;;;;;;;0.60;0.50;;;6.10;99.90;;;6.97;100.00;100847.56;5015973;28;20468;-65
2021/01/21 08:38:53;;;;;;;0.70;0.60;;;6.10;99.90;;;7.01;100.00;102176.81;5010157;28;20434;-65
2021/01/21 08:41:20;;;;;;;0.70;0.60;;;6.10;99.90;;;6.77;100.00;104118.63;5005157;28;20984;-65
2021/01/21 08:43:48;;;;;;;0.70;0.60;;;6.00;99.90;;;6.80;100.00;104452.94;4996920;28;20465;-65
2021/01/21 08:46:17;;;;;;;0.70;0.60;;;6.00;99.90;;;6.83;100.00;105781.59;5000453;28;20541;-65
2021/01/21 08:48:47;;;;;;;0.70;0.60;;;6.00;99.90;;;6.76;100.00;106762.28;4997547;28;20558;-65
2021/01/21 08:51:34;;;;;;;0.70;0.60;;;5.90;99.90;;;6.78;100.00;107759.88;4998059;28;20509;-65
2021/01/21 08:54:16;;;;;;;0.70;0.60;;;5.90;99.90;;;6.67;100.00;109394.53;5005965;28;20497;-65
2021/01/21 08:57:07;;;;;;;0.70;0.60;;;5.80;99.90;;;6.84;100.00;109424.91;5016393;28;20925;-65
2021/01/21 08:59:34;;;;;;;0.70;0.60;;;6.00;99.90;;;6.97;100.00;109449.63;5009438;28;20509;-66
2021/01/21 09:02:04;;;;;;;0.70;0.60;;;6.10;99.90;;;7.03;100.00;110455.13;5015795;28;20444;-66
2021/01/21 09:04:38;;;;;;;0.63;0.57;;;6.20;99.90;;;7.10;100.00;111131.50;5015362;28;21007;-66
2021/01/21 09:07:08;;;;;;;0.60;0.50;;;6.30;99.90;;;7.18;100.00;111146.97;4999828;28;20442;-66
2021/01/21 09:09:38;;;;;;;0.60;0.60;;;6.40;99.90;;;7.22;100.00;111816.94;4996638;28;20441;-65
2021/01/21 09:12:16;;;;;;;0.60;0.50;;;6.50;99.90;;;7.23;100.00;114142.22;5011726;28;20437;-65
2021/01/21 09:14:44;;;;;;;0.60;0.60;;;6.40;99.90;;;7.24;100.00;114144.19;5009017;28;21050;-65
2021/01/21 09:17:15;;;;;;;0.70;0.60;;;6.40;99.90;;;7.38;100.00;115165.94;4996698;28;20423;-65
2021/01/21 09:19:45;;;;;;;0.70;0.50;;;6.50;99.90;;;7.47;100.00;115517.03;5006848;28;20934;-64
2021/01/21 09:22:14;;;;;;;0.70;0.60;;;6.60;99.90;;;7.44;100.00;113850.81;5010840;28;20448;-65
2021/01/21 09:24:57;;;;;;;0.60;0.60;;;6.70;99.90;;;7.55;100.00;115532.06;5005637;28;20514;-65
2021/01/21 09:27:24;;;;;;;0.70;0.70;;;6.70;99.90;;;7.55;100.00;118522.94;5012016;28;20430;-65
2021/01/21 09:29:55;;;;;;;0.70;0.57;;;6.70;99.90;;;7.63;100.00;119537.00;5012860;28;20465;-66
2021/01/21 09:32:25;;;;;;;0.63;0.60;;;6.80;99.90;;;7.60;100.00;119198.22;5010223;28;20450;-64
2021/01/21 09:34:57;;;;;;;0.70;0.50;;;6.80;99.90;;;7.68;100.00;119880.00;5002946;28;20824;-65
2021/01/21 09:37:26;;;;;;;0.60;0.50;;;6.90;99.90;;;7.68;100.00;120878.09;5011704;28;20438;-65
2021/01/21 09:39:53;;;;;;;0.70;0.60;;;6.90;99.90;;;7.86;100.00;120249.13;5012438;28;20965;-65
2021/01/21 09:42:21;;;;;;;0.60;0.50;;;7.00;99.90;;;7.87;100.00;121248.66;5003054;28;20445;-65
2021/01/21 09:44:48;;;;;;;0.67;0.50;;;7.00;99.90;;;7.85;100.00;122576.25;5013016;28;20480;-66
2021/01/21 09:47:16;;;;;;;0.70;0.60;;;7.00;99.90;;;7.81;100.00;121901.88;5015881;28;20416;-65
2021/01/21 09:49:44;;;;;;;0.70;0.60;;;7.00;99.90;;;7.95;100.00;123929.94;5014799;28;20438;-65
2021/01/21 09:52:13;;;;;;;0.70;0.70;;;7.10;99.90;;;8.09;100.00;123626.72;5011031;28;20473;-65
2021/01/21 09:54:40;;;;;;;0.67;0.50;;;7.20;99.90;;;8.05;100.00;121286.47;5011466;28;20466;-65
2021/01/21 09:57:08;;;;;;;0.70;0.60;;;7.20;99.90;;;8.10;100.00;120962.91;5014085;28;20510;-66
2021/01/21 09:59:35;;;;;;;0.70;0.60;;;7.30;99.90;;;8.06;100.00;122287.69;4995957;28;20469;-65
2021/01/21 10:02:02;;;;;;;0.70;0.60;;;7.30;99.90;;;8.07;100.00;123622.47;4998934;28;20451;-65
2021/01/21 10:04:30;;;;;;;0.70;0.60;;;7.30;99.90;;;8.16;100.00;124308.31;5005328;28;20437;-65
2021/01/21 10:06:57;;;;;;;0.60;0.57;;;7.40;99.90;;;8.22;100.00;125988.47;5013480;28;20445;-65
2021/01/21 10:09:25;;;;;;;0.70;0.60;;;7.40;99.90;;;8.39;100.00;125356.22;5011721;28;20445;-66
2021/01/21 10:11:53;;;;;;;0.70;0.50;;;7.60;99.90;;;8.61;100.00;124068.38;5009724;28;20440;-66
2021/01/21 10:14:20;;;;;;;0.70;0.60;;;7.80;99.90;;;8.96;100.00;118140.09;5013408;28;20544;-64
2021/01/21 10:16:47;;;;;;;0.70;0.60;;;8.00;99.90;;;9.48;100.00;118243.38;5015062;28;20888;-63
2021/01/21 10:19:14;;;;;;;0.70;0.60;;;8.20;99.90;;;9.36;100.00;114221.31;5014494;28;20441;-65
2021/01/21 10:21:41;;;;;;;0.70;0.60;;;8.40;99.90;;;9.56;100.00;113593.69;5013147;28;20525;-65
2021/01/21 10:24:09;;;;;;;0.70;0.70;;;8.40;99.90;;;9.68;100.00;117951.75;5007022;28;20437;-65
2021/01/21 10:26:38;;;;;;;0.70;0.60;;;8.40;99.90;;;9.75;100.00;121301.41;5011380;28;20481;-65
2021/01/21 10:29:06;;;;;;;0.70;0.60;;;8.60;99.90;;;9.39;100.00;126571.34;5014291;28;20545;-65
2021/01/21 10:31:33;;;;;;;0.70;0.60;;;8.50;99.90;;;9.57;100.00;126943.91;5013851;28;20454;-66
2021/01/21 10:34:02;;;;;;;0.70;0.60;;;8.50;99.90;;;9.51;100.00;133289.47;5013030;28;20488;-65
2021/01/21 10:36:29;;;;;;;0.70;0.60;;;8.50;99.90;;;9.33;100.00;138273.69;5014104;28;20438;-67
2021/01/21 10:38:56;;;;;;;0.70;0.60;;;8.40;99.90;;;9.28;100.00;139602.97;5008611;28;20446;-66
2021/01/21 10:41:23;;;;;;;0.70;0.53;;;8.30;99.90;;;9.25;100.00;141273.00;5013833;28;20445;-67